Latest Weather Observations for Collie East

IDW60801

Issued at 11:54 pm WST Friday 28 February 2020 (issued every 10 minutes, with the page automatically refreshed every 10 minutes)

About weather observations | Map of weather stations | Latest weather observations for WA | Other Formats
Station Details ID: 009994 Name: COLLIE EAST Lat: -33.36 Lon: 116.17 Height: 200.0 m
Data from the previous 72 hours. | See also: Recent months at Collie East
Date/Time
WST
Temp
°C
App
Temp
°C
Dew
Point
°C
Rel
Hum
%
Delta-T
°C
Wind Press
QNH
hPa
Press
MSL
hPa
Rain since
9am
mm
Dir  Spd
km/h
Gust
km/h
Spd
kts
Gust
kts
28/11:30pm 20.7 23.2 17.3 81 2.1 CALM 0 0 0 0 - - 0.0
28/11:00pm 21.3 23.7 17.1 77 2.6 CALM 0 0 0 0 - - 0.0
28/10:30pm 22.5 25.0 17.2 72 3.3 CALM 0 0 0 0 - - 0.0
28/10:00pm 23.6 24.7 17.1 67 4.0 N 7 9 4 5 - - 0.0
28/09:30pm 23.8 25.3 17.5 68 3.9 N 6 9 3 5 - - 0.0
28/09:00pm 23.7 25.1 17.4 68 3.9 N 6 9 3 5 - - 0.0
28/08:30pm 24.1 25.5 17.4 66 4.2 NNE 6 11 3 6 - - 0.0
28/08:00pm 24.3 25.6 17.1 64 4.5 NE 6 9 3 5 - - 0.0
28/07:30pm 25.1 26.2 17.0 60 5.1 NNE 7 11 4 6 - - 0.0
28/07:00pm 25.8 26.4 16.9 58 5.6 NNE 9 15 5 8 - - 0.0
28/06:30pm 26.3 26.5 16.8 56 5.9 NNE 11 17 6 9 - - 0.0
28/06:00pm 26.6 26.2 17.1 56 6.0 NNE 15 20 8 11 - - 0.0
28/05:30pm 26.8 26.3 17.0 55 6.2 NNE 15 26 8 14 - - 0.0
28/05:00pm 26.9 26.0 16.8 54 6.3 NNE 17 32 9 17 - - 0.0
28/04:30pm 27.5 26.7 17.1 53 6.6 NNE 17 30 9 16 - - 0.0
28/04:00pm 27.0 25.5 16.3 52 6.7 NNE 19 35 10 19 - - 0.0
28/03:30pm 27.5 26.0 16.8 52 6.7 NE 20 30 11 16 - - 0.0
28/03:00pm 27.6 26.2 16.6 51 6.9 NE 19 30 10 16 - - 0.0
28/02:30pm 27.8 25.8 17.3 52 6.6 NE 24 48 13 26 - - 0.0
28/02:00pm 26.8 24.9 17.6 57 5.8 NE 24 44 13 24 - - 0.0
28/01:30pm 26.3 25.7 17.6 58 5.5 NNE 17 30 9 16 - - 0.0
28/01:03pm 26.7 24.0 17.5 57 5.8 NNE 28 46 15 25 - - 0.0
28/01:00pm 26.6 24.1 17.1 56 6.0 NNE 26 43 14 23 - - 0.0
28/12:30pm 26.0 24.8 17.6 60 5.3 NNE 20 37 11 20 - - 0.0
28/12:00pm 24.9 23.7 17.4 63 4.7 NNE 20 37 11 20 - - 0.0
28/11:30am 24.6 25.2 18.5 69 3.9 NNE 13 30 7 16 - - 0.0
28/11:00am 24.4 23.9 17.9 67 4.1 NE 17 30 9 16 - - 0.0
28/10:30am 23.5 24.1 17.7 70 3.6 NE 11 17 6 9 - - 0.0
28/10:00am 23.1 23.7 17.6 71 3.4 NNE 11 19 6 10 - - 0.0
28/09:30am 23.0 22.4 17.5 71 3.4 NNE 17 28 9 15 - - 0.0
28/09:00am 21.8 20.3 17.6 77 2.6 NE 22 43 12 23 - - 5.2
28/08:30am 24.4 23.3 16.4 61 4.9 NE 17 28 9 15 - - 1.0
28/08:00am 23.6 22.9 16.4 64 4.4 NE 15 28 8 15 - - 1.0
28/07:30am 23.1 23.2 16.6 67 4.0 NE 11 20 6 11 - - 0.8
28/07:00am 22.4 22.5 16.4 69 3.7 ENE 11 22 6 12 - - 0.8
28/06:30am 22.2 22.6 16.2 69 3.7 NNE 9 15 5 8 - - 0.8
28/06:00am 22.5 22.4 16.1 67 3.9 NE 11 20 6 11 - - 0.8
28/05:30am 22.8 22.4 16.1 66 4.1 ENE 13 26 7 14 - - 0.8
28/05:00am 22.9 23.3 16.2 66 4.1 ENE 9 13 5 7 - - 0.8
28/04:30am 22.8 23.1 15.9 65 4.2 NE 9 19 5 10 - - 0.8
28/04:00am 22.9 23.1 15.7 64 4.4 ENE 9 15 5 8 - - 0.8
28/03:30am 22.7 22.9 15.8 65 4.2 ENE 9 17 5 9 - - 0.8
28/03:00am 22.8 22.3 15.9 65 4.2 NE 13 24 7 13 - - 0.8
28/02:30am 22.3 21.9 16.1 68 3.8 ENE 13 32 7 17 - - 0.8
28/02:00am 21.7 22.1 16.4 72 3.2 NE 9 15 5 8 - - 0.6
28/01:30am 21.5 21.3 16.7 74 2.9 E 13 20 7 11 - - 0.6
28/01:00am 20.4 21.2 17.4 83 1.9 E 9 19 5 10 - - 0.6
28/12:30am 20.3 21.8 17.5 84 1.7 ESE 6 13 3 7 - - 0.6
28/12:00am 19.9 21.4 18.0 89 1.2 SE 7 11 4 6 - - 0.6
 
Date/Time
WST
Temp
°C
App
Temp
°C
Dew
Point
°C
Rel
Hum
%
Delta-T
°C
Wind Press
QNH
hPa
Press
MSL
hPa
Rain since
9am
mm
Dir  Spd
km/h
Gust
km/h
Spd
kts
Gust
kts
27/11:30pm 19.4 21.7 17.7 90 1.1 WSW 2 7 1 4 - - 0.6
27/11:00pm 19.7 21.7 17.8 89 1.2 SSE 4 7 2 4 - - 0.6
27/10:30pm 19.9 21.9 17.9 88 1.2 S 4 7 2 4 - - 0.4
27/10:00pm 20.3 21.7 17.7 85 1.6 ESE 7 13 4 7 - - 0.4
27/09:30pm 20.4 23.0 17.4 83 1.9 CALM 0 9 0 5 - - 0.4
27/09:00pm 21.0 22.4 17.4 80 2.2 SE 6 9 3 5 - - 0.4
27/08:30pm 21.5 23.3 17.5 78 2.5 E 4 13 2 7 - - 0.4
27/08:00pm 21.3 22.7 17.7 80 2.2 E 7 11 4 6 - - 0.4
27/07:30pm 21.5 22.4 17.5 78 2.5 E 9 13 5 7 - - 0.2
27/07:00pm 22.1 22.9 17.2 74 3.0 ESE 9 17 5 9 - - 0.2
27/06:30pm 22.7 23.9 17.4 72 3.3 SE 7 9 4 5 - - 0.2
27/06:00pm 22.8 24.6 17.5 72 3.3 SW 4 7 2 4 - - 0.2
27/05:30pm 22.7 23.2 17.4 72 3.3 ESE 11 22 6 12 - - 0.2
27/05:00pm 23.2 23.0 17.6 71 3.5 E 15 24 8 13 - - 0.2
27/04:30pm 23.5 23.3 17.5 69 3.8 ENE 15 28 8 15 - - 0.2
27/04:00pm 24.1 23.8 17.4 66 4.2 ENE 15 24 8 13 - - 0.2
27/03:30pm 24.9 25.2 17.9 65 4.4 E 13 28 7 15 - - 0.2
27/03:00pm 24.0 23.3 17.3 66 4.2 E 17 30 9 16 - - 0.2
27/02:30pm 23.5 23.0 16.8 66 4.1 E 15 30 8 16 - - 0.0
27/02:00pm 23.3 22.8 16.8 67 4.0 ESE 15 30 8 16 - - 0.0
27/01:30pm 22.3 22.6 17.0 72 3.3 SE 11 28 6 15 - - 0.0
27/01:00pm 21.2 21.3 16.4 74 2.9 ESE 11 20 6 11 - - 0.0
27/12:30pm 20.9 20.5 16.3 75 2.8 E 13 26 7 14 - - 0.0
27/12:00pm 20.5 20.5 16.3 77 2.5 ENE 11 17 6 9 - - 0.0
27/11:30am 19.5 19.0 16.0 80 2.1 ESE 13 24 7 13 - - 0.0
27/11:00am 19.4 19.2 15.7 79 2.2 E 11 20 6 11 - - 0.0
27/10:30am 19.6 18.7 15.9 79 2.2 ESE 15 26 8 14 - - 0.0
27/10:00am 19.4 19.0 16.1 81 2.0 ESE 13 26 7 14 - - 0.0
27/09:30am 18.5 18.2 15.4 82 1.8 SE 11 24 6 13 - - 0.0
27/09:00am 18.3 18.8 15.6 84 1.6 SE 7 11 4 6 - - 3.8
27/08:30am 18.6 18.5 14.9 79 2.2 E 9 20 5 11 - - 3.6
27/08:00am 18.7 19.1 15.2 80 2.1 ESE 7 17 4 9 - - 3.6
27/07:30am 17.6 17.8 14.7 83 1.7 ESE 7 13 4 7 - - 3.6
27/07:00am 17.8 17.5 14.3 80 2.0 E 9 19 5 10 - - 3.4
27/06:30am 18.0 17.8 14.7 81 1.9 ESE 9 15 5 8 - - 3.4
27/06:00am 17.4 17.1 14.3 82 1.8 ESE 9 17 5 9 - - 3.4
27/05:30am 17.5 17.3 14.6 83 1.7 E 9 19 5 10 - - 3.4
27/05:00am 17.5 17.3 14.6 83 1.7 ESE 9 20 5 11 - - 3.4
27/04:30am 18.2 18.2 14.3 78 2.3 NE 7 13 4 7 - - 3.4
27/04:00am 18.1 17.4 14.2 78 2.3 E 11 24 6 13 - - 3.4
27/03:30am 18.0 16.8 14.1 78 2.3 E 13 20 7 11 - - 3.2
27/03:00am 18.1 16.6 14.2 78 2.3 ESE 15 28 8 15 - - 3.2
27/02:30am 18.5 17.1 14.6 78 2.3 E 15 32 8 17 - - 3.2
27/02:00am 18.5 18.2 15.4 82 1.8 ESE 11 17 6 9 - - 3.2
27/01:30am 19.2 19.3 15.5 79 2.2 E 9 13 5 7 - - 2.8
27/01:00am 20.8 21.1 15.1 70 3.4 E 7 15 4 8 - - 2.2
27/12:30am 20.8 21.3 15.1 70 3.4 ESE 6 13 3 7 - - 2.2
27/12:00am 20.9 21.5 15.7 72 3.1 ESE 7 13 4 7 - - 2.2
 
Date/Time
WST
Temp
°C
App
Temp
°C
Dew
Point
°C
Rel
Hum
%
Delta-T
°C
Wind Press
QNH
hPa
Press
MSL
hPa
Rain since
9am
mm
Dir  Spd
km/h
Gust
km/h
Spd
kts
Gust
kts
26/11:30pm 19.6 21.6 16.1 80 2.1 CALM 0 6 0 3 - - 2.2
26/11:00pm 21.2 21.9 16.2 73 3.0 E 7 15 4 8 - - 2.2
26/10:30pm 19.0 20.6 16.8 87 1.3 SSE 4 7 2 4 - - 2.2
26/10:00pm 19.0 20.6 16.8 87 1.3 SSE 4 11 2 6 - - 2.2
26/09:30pm 19.8 22.1 16.8 83 1.8 CALM 0 7 0 4 - - 2.2
26/09:00pm 20.7 22.0 17.1 80 2.2 SE 6 11 3 6 - - 2.2
26/08:30pm 20.9 21.9 16.9 78 2.5 ESE 7 13 4 7 - - 2.2
26/08:00pm 21.2 22.3 17.0 77 2.6 ESE 7 13 4 7 - - 2.2
26/07:30pm 21.6 22.6 16.8 74 2.9 ESE 7 15 4 8 - - 2.2
26/07:00pm 21.8 22.7 16.7 73 3.1 ESE 7 15 4 8 - - 2.2
26/06:30pm 22.0 22.6 16.9 73 3.1 ESE 9 17 5 9 - - 2.2
26/06:00pm 21.7 22.4 17.1 75 2.8 ESE 9 15 5 8 - - 2.2
26/05:30pm 21.1 22.0 17.5 80 2.2 ESE 9 15 5 8 - - 2.2
26/05:00pm 20.8 21.3 17.4 81 2.1 SSE 11 20 6 11 - - 2.2
26/04:30pm 21.7 23.3 17.9 79 2.4 SSE 6 13 3 7 - - 2.2
26/04:00pm 22.2 23.1 17.6 75 2.9 ESE 9 17 5 9 - - 2.2
26/03:30pm 22.5 24.4 18.9 80 2.3 SE 7 11 4 6 - - 2.2
26/03:00pm 21.5 22.9 17.9 80 2.3 ESE 7 17 4 9 - - 2.2
26/02:30pm 23.2 23.0 15.8 63 4.5 ENE 11 20 6 11 - - 0.8
26/02:00pm 23.2 23.1 16.0 64 4.4 E 11 22 6 12 - - 0.8
26/01:30pm 22.2 24.0 18.2 78 2.5 S 6 11 3 6 - - 0.8
26/01:00pm 23.1 22.9 15.7 63 4.5 E 11 20 6 11 - - 0.4
26/12:30pm 23.3 22.8 14.8 59 5.1 E 11 26 6 14 - - 0.0
26/12:00pm 24.4 22.5 15.1 56 5.6 E 19 24 10 13 - - 0.0
26/11:30am 23.4 22.6 15.2 60 4.9 E 13 20 7 11 - - 0.0
26/11:00am 22.4 21.9 15.0 63 4.4 E 11 24 6 13 - - 0.0
26/10:30am 21.0 19.9 14.4 66 3.9 E 13 26 7 14 - - 0.0
26/10:00am 19.9 17.9 14.0 69 3.4 ESE 17 28 9 15 - - 0.0
26/09:30am 19.2 17.6 13.8 71 3.1 ESE 15 30 8 16 - - 0.0
26/09:00am 18.6 17.3 13.7 73 2.8 ESE 13 22 7 12 - - 0.0
26/08:30am 18.1 17.2 13.6 75 2.6 E 11 19 6 10 - - 0.0
26/08:00am 17.5 15.7 13.4 77 2.3 E 15 26 8 14 - - 0.0
26/07:30am 17.1 15.3 13.4 79 2.1 ESE 15 24 8 13 - - 0.0
26/07:00am 16.8 15.4 13.5 81 1.9 E 13 30 7 16 - - 0.0
26/06:30am 16.6 15.2 13.5 82 1.8 ESE 13 26 7 14 - - 0.0
26/06:00am 16.6 15.3 13.7 83 1.7 ESE 13 24 7 13 - - 0.0
26/05:30am 16.7 15.4 13.6 82 1.8 ESE 13 28 7 15 - - 0.0
26/05:00am 16.7 15.7 13.4 81 1.9 ESE 11 22 6 12 - - 0.0
26/04:30am 16.8 15.4 13.5 81 1.9 ESE 13 24 7 13 - - 0.0
26/04:00am 17.2 16.2 13.3 78 2.2 SE 11 19 6 10 - - 0.0
26/03:30am 17.5 16.1 13.4 77 2.3 ESE 13 30 7 16 - - 0.0
26/03:00am 17.5 16.1 13.4 77 2.3 ESE 13 22 7 12 - - 0.0
26/02:30am 17.5 16.1 13.4 77 2.3 E 13 20 7 11 - - 0.0
26/02:00am 17.6 16.3 13.7 78 2.2 ESE 13 22 7 12 - - 0.0
26/01:30am 17.5 16.2 13.6 78 2.2 ESE 13 20 7 11 - - 0.0
26/01:00am 17.7 16.0 13.6 77 2.3 ESE 15 24 8 13 - - 0.0
26/12:30am 17.9 16.6 13.6 76 2.5 ESE 13 24 7 13 - - 0.0
26/12:00am 17.8 15.7 13.5 76 2.5 E 17 30 9 16 - - 0.0

Other formats

Comma delimited format used in spreadsheet applications
http://www.bom.gov.au/fwo/IDW60801/IDW60801.95621.axf

JavaScript Object Notation format (JSON) in row-major order
http://www.bom.gov.au/fwo/IDW60801/IDW60801.95621.json

Data quality

Most of these data are generated automatically and are frequently updated. Quality checks on data are not normally performed. It is possible for incorrect values to appear. Refer to information at About Latest Weather Observations and please check the disclaimer before using these data.